Time;durP1;ratioP1;P1;durP2;ratioP2;P2;SDS_P1;SDS_P2;PMS_P1;PMS_P2;Temp;Humidity;BMP_temperature;BMP_pressure;BME280_temperature;BME280_humidity;BME280_pressure;Samples;Min_cycle;Max_cycle;Signal;HPM_P1;HPM_P2
2023/10/11 00:03:32;;;;;;;9.17;6.10;;;15.90;95.50;;;;;;10501133;28;20193;-79
2023/10/11 00:08:54;;;;;;;8.03;6.17;;;15.90;95.60;;;;;;10464943;28;20225;-79
2023/10/11 00:14:19;;;;;;;10.00;6.50;;;15.90;95.40;;;;;;10498205;28;20197;-79
2023/10/11 00:19:42;;;;;;;13.97;6.30;;;15.90;95.40;;;;;;10500619;28;20213;-79
2023/10/11 00:25:07;;;;;;;10.53;7.00;;;15.90;95.40;;;;;;10472769;28;20189;-79
2023/10/11 00:30:30;;;;;;;11.53;7.43;;;15.80;95.40;;;;;;10502103;28;20217;-79
2023/10/11 00:35:55;;;;;;;11.03;6.70;;;15.80;95.30;;;;;;10488502;28;20804;-79
2023/10/11 00:41:18;;;;;;;12.20;6.77;;;15.80;95.40;;;;;;10486966;28;20302;-79
2023/10/11 00:46:50;;;;;;;8.30;6.33;;;15.70;95.40;;;;;;10501035;28;20320;-79
2023/10/11 00:52:14;;;;;;;7.50;5.70;;;15.80;95.70;;;;;;10484168;28;20221;-79
2023/10/11 00:57:36;;;;;;;8.30;6.30;;;15.80;95.30;;;;;;10482545;28;20609;-79
2023/10/11 01:02:59;;;;;;;7.43;5.87;;;15.80;95.30;;;;;;10489587;28;20516;-79
2023/10/11 01:08:22;;;;;;;7.67;6.50;;;15.80;95.20;;;;;;10485890;28;20236;-79
2023/10/11 01:13:50;;;;;;;10.23;5.80;;;15.80;95.20;;;;;;10501072;28;20290;-79
2023/10/11 01:19:15;;;;;;;8.00;6.60;;;15.70;95.50;;;;;;10487681;28;20227;-79
2023/10/11 01:24:41;;;;;;;10.20;6.83;;;15.70;95.20;;;;;;10482533;28;20646;-79
2023/10/11 01:30:07;;;;;;;11.20;6.23;;;15.60;95.20;;;;;;10462311;28;20661;-79
2023/10/11 01:35:36;;;;;;;12.17;6.57;;;15.60;95.50;;;;;;10448468;28;20227;-79
2023/10/11 01:41:00;;;;;;;13.83;7.10;;;15.60;95.70;;;;;;10486698;28;20194;-79
2023/10/11 01:46:27;;;;;;;8.97;6.20;;;15.60;95.60;;;;;;10500995;28;20316;-78
2023/10/11 01:51:49;;;;;;;9.70;6.57;;;15.50;95.60;;;;;;10485047;28;20224;-79
2023/10/11 01:57:13;;;;;;;8.97;7.20;;;15.50;95.60;;;;;;10499493;28;20213;-79
2023/10/11 02:02:36;;;;;;;8.50;6.43;;;15.50;95.70;;;;;;10486187;28;20682;-78
2023/10/11 02:08:04;;;;;;;8.70;6.87;;;15.50;95.80;;;;;;10484936;28;20221;-78
2023/10/11 02:13:27;;;;;;;8.67;6.60;;;15.50;95.80;;;;;;10502282;28;20205;-79
2023/10/11 02:18:51;;;;;;;9.10;7.00;;;15.50;95.80;;;;;;10482941;28;20210;-78
2023/10/11 02:24:14;;;;;;;8.93;6.90;;;15.40;96.00;;;;;;10496076;28;20284;-78
2023/10/11 02:29:41;;;;;;;12.77;6.73;;;15.40;96.10;;;;;;10494593;28;20221;-78
2023/10/11 02:35:06;;;;;;;9.70;7.13;;;15.40;96.20;;;;;;10494686;28;20444;-79
2023/10/11 02:40:30;;;;;;;8.53;7.10;;;15.40;96.10;;;;;;10480895;28;20202;-78
2023/10/11 02:45:53;;;;;;;8.93;7.20;;;15.40;96.20;;;;;;10494110;28;20629;-79
2023/10/11 02:51:17;;;;;;;9.90;7.90;;;15.40;96.40;;;;;;10461584;28;20221;-79
2023/10/11 02:56:46;;;;;;;9.57;7.30;;;15.40;96.40;;;;;;10478547;28;20216;-79
2023/10/11 03:02:15;;;;;;;16.40;9.80;;;15.30;96.40;;;;;;10501545;28;20284;-78
2023/10/11 03:07:39;;;;;;;23.00;14.90;;;15.30;96.40;;;;;;10479589;28;20364;-79
2023/10/11 03:13:02;;;;;;;12.87;8.90;;;15.30;96.50;;;;;;10494183;28;20232;-79
2023/10/11 03:18:31;;;;;;;11.83;8.07;;;15.20;96.60;;;;;;10507707;28;20228;-79
2023/10/11 03:23:54;;;;;;;8.30;6.17;;;15.20;96.70;;;;;;10508313;28;20679;-78
2023/10/11 03:29:21;;;;;;;9.13;7.20;;;15.20;96.80;;;;;;10501892;28;20348;-79
2023/10/11 03:34:44;;;;;;;10.47;7.43;;;15.20;96.80;;;;;;10503262;28;20708;-78
2023/10/11 03:40:27;;;;;;;11.63;8.00;;;15.20;96.90;;;;;;10510165;28;20216;-79
2023/10/11 03:45:50;;;;;;;7.93;7.10;;;15.20;97.00;;;;;;10501481;28;20311;-79
2023/10/11 03:51:19;;;;;;;11.50;7.57;;;15.20;96.90;;;;;;10497374;28;20216;-79
2023/10/11 03:56:46;;;;;;;11.87;8.70;;;15.20;97.00;;;;;;10501319;28;20279;-79
2023/10/11 04:02:11;;;;;;;11.40;7.77;;;15.20;97.10;;;;;;10492877;28;20582;-78
2023/10/11 04:07:35;;;;;;;11.20;7.20;;;15.20;97.00;;;;;;10462972;28;20256;-79
2023/10/11 04:12:57;;;;;;;9.40;7.20;;;15.20;97.10;;;;;;10503977;28;20217;-78
2023/10/11 04:18:33;;;;;;;18.13;7.77;;;15.20;97.20;;;;;;10485602;28;20224;-78
2023/10/11 04:23:57;;;;;;;12.33;10.10;;;15.20;97.10;;;;;;10500178;28;20216;-79
2023/10/11 04:29:19;;;;;;;39.53;25.50;;;15.20;97.20;;;;;;10504013;28;20232;-79
2023/10/11 04:34:48;;;;;;;31.27;21.30;;;15.10;97.20;;;;;;10496778;28;20197;-79
2023/10/11 04:40:23;;;;;;;23.40;15.30;;;15.10;97.40;;;;;;10498884;28;20266;-80
2023/10/11 04:45:45;;;;;;;19.80;15.90;;;15.10;97.40;;;;;;10471554;28;20221;-79
2023/10/11 04:51:21;;;;;;;13.07;10.83;;;15.10;97.50;;;;;;10499918;28;20548;-79
2023/10/11 04:56:55;;;;;;;10.17;6.70;;;15.20;97.50;;;;;;10480006;28;20227;-79
2023/10/11 05:02:24;;;;;;;12.40;7.80;;;15.20;97.50;;;;;;10496367;28;20204;-78
2023/10/11 05:07:46;;;;;;;7.30;5.90;;;15.20;97.40;;;;;;10487973;28;20305;-78
2023/10/11 05:13:13;;;;;;;11.03;7.33;;;15.10;97.50;;;;;;10489405;28;20228;-78
2023/10/11 05:18:38;;;;;;;9.80;7.10;;;15.20;97.50;;;;;;10489664;28;20224;-78
2023/10/11 05:24:14;;;;;;;7.13;6.03;;;15.10;97.40;;;;;;10494123;28;20185;-78
2023/10/11 05:30:05;;;;;;;12.10;8.17;;;15.10;97.40;;;;;;10488166;28;20219;-78
2023/10/11 05:35:24;;;;;;;10.97;7.30;;;15.10;97.50;;;;;;10491887;28;20196;-77
2023/10/11 05:52:08;;;;;;;11.53;7.50;;;15.00;97.60;;;;;;10503186;28;20604;-78
2023/10/11 05:57:30;;;;;;;12.40;9.27;;;15.00;97.60;;;;;;10505305;28;20355;-78
2023/10/11 06:02:54;;;;;;;9.13;7.10;;;15.00;97.40;;;;;;10490867;28;20196;-78
2023/10/11 06:08:16;;;;;;;12.73;8.23;;;15.00;97.50;;;;;;10505842;28;20236;-77
2023/10/11 06:13:39;;;;;;;9.83;7.30;;;15.00;97.50;;;;;;10501953;28;20225;-77
2023/10/11 06:19:16;;;;;;;10.93;6.70;;;15.00;97.60;;;;;;10507324;28;20231;-77
2023/10/11 06:24:38;;;;;;;7.90;6.13;;;15.10;97.60;;;;;;10489748;28;20197;-77
2023/10/11 06:30:06;;;;;;;11.17;7.10;;;15.10;97.60;;;;;;10495083;28;20235;-78
2023/10/11 06:35:30;;;;;;;7.43;6.60;;;15.10;97.60;;;;;;10477602;28;20225;-78
2023/10/11 06:41:36;;;;;;;9.17;6.63;;;15.20;97.70;;;;;;10479105;28;20248;-78
2023/10/11 06:46:37;;;;;;;14.93;6.83;;;15.20;97.70;;;;;;10493182;28;20212;-78
2023/10/11 06:52:04;;;;;;;8.47;6.50;;;15.20;97.70;;;;;;10492615;28;20855;-77
2023/10/11 06:57:27;;;;;;;10.77;6.70;;;15.30;97.70;;;;;;10472054;28;20320;-78
2023/10/11 07:02:49;;;;;;;11.27;7.67;;;15.30;97.70;;;;;;10474626;28;20200;-78
2023/10/11 07:08:17;;;;;;;9.80;7.27;;;15.40;97.60;;;;;;10495369;22;20295;-78
2023/10/11 07:13:54;;;;;;;8.70;7.23;;;15.40;97.70;;;;;;10436737;28;20229;-78
2023/10/11 07:19:16;;;;;;;13.97;9.00;;;15.50;97.80;;;;;;10428093;28;20223;-79
2023/10/11 07:24:40;;;;;;;13.33;6.10;;;15.60;97.90;;;;;;10446650;28;20309;-77
2023/10/11 07:30:06;;;;;;;8.57;5.87;;;15.70;97.50;;;;;;10411713;28;20730;-79
2023/10/11 07:35:28;;;;;;;12.63;7.03;;;15.80;97.20;;;;;;10459247;28;20228;-78
2023/10/11 07:40:52;;;;;;;10.73;5.87;;;15.90;97.30;;;;;;10395539;28;20688;-78
2023/10/11 07:46:15;;;;;;;9.17;6.03;;;16.00;97.30;;;;;;10431244;28;20301;-77
2023/10/11 07:51:39;;;;;;;13.17;6.20;;;16.10;96.90;;;;;;10448527;28;20219;-78
2023/10/11 07:57:04;;;;;;;10.47;5.73;;;16.20;97.50;;;;;;10423788;28;20222;-78
2023/10/11 08:02:31;;;;;;;12.07;7.00;;;16.30;97.50;;;;;;10412469;28;20302;-79
2023/10/11 08:07:55;;;;;;;14.87;7.87;;;16.40;97.20;;;;;;10432012;28;20229;-79
2023/10/11 08:13:24;;;;;;;10.60;7.00;;;16.40;97.40;;;;;;10458103;28;20222;-80
2023/10/11 08:18:48;;;;;;;10.13;6.20;;;16.50;97.50;;;;;;10444504;28;20683;-79
2023/10/11 08:24:15;;;;;;;9.93;6.43;;;16.60;97.60;;;;;;10423801;28;20194;-79
2023/10/11 08:29:42;;;;;;;12.20;6.83;;;16.70;98.00;;;;;;10434503;28;20218;-77
2023/10/11 08:35:07;;;;;;;9.40;6.80;;;16.80;98.10;;;;;;10442152;28;20206;-77
2023/10/11 08:40:34;;;;;;;10.27;7.30;;;16.80;98.40;;;;;;10440430;28;20217;-80
2023/10/11 08:46:01;;;;;;;9.10;6.00;;;16.90;98.70;;;;;;10427424;28;20190;-76
2023/10/11 08:51:24;;;;;;;16.67;6.00;;;17.00;98.90;;;;;;10429925;28;20333;-76
2023/10/11 08:56:54;;;;;;;7.60;5.70;;;17.00;99.00;;;;;;10452208;28;20221;-77
2023/10/11 09:02:19;;;;;;;8.07;5.93;;;17.10;99.10;;;;;;10421329;28;20292;-77
2023/10/11 09:07:45;;;;;;;14.63;6.90;;;17.10;99.30;;;;;;10410162;28;20226;-77
2023/10/11 09:13:09;;;;;;;10.40;6.30;;;17.20;99.30;;;;;;10418698;28;20229;-79
2023/10/11 09:18:34;;;;;;;9.33;6.73;;;17.20;99.30;;;;;;10415625;28;20215;-79
2023/10/11 09:24:00;;;;;;;8.97;5.80;;;17.30;99.50;;;;;;10412531;28;20202;-79
2023/10/11 09:29:26;;;;;;;10.10;7.50;;;17.40;99.50;;;;;;10425981;28;20672;-79
2023/10/11 09:34:51;;;;;;;9.77;6.20;;;17.50;99.60;;;;;;10446202;28;20198;-79
2023/10/11 09:40:16;;;;;;;15.63;6.50;;;17.70;99.60;;;;;;10457541;28;20634;-79
2023/10/11 09:45:42;;;;;;;9.90;5.70;;;17.80;99.10;;;;;;10457195;28;20207;-79
2023/10/11 09:51:13;;;;;;;15.73;6.00;;;17.90;98.90;;;;;;10434857;28;20214;-79
2023/10/11 09:56:48;;;;;;;15.37;6.00;;;17.90;98.70;;;;;;10444406;28;20229;-79
2023/10/11 10:02:15;;;;;;;11.67;5.60;;;17.90;98.90;;;;;;10429917;28;20222;-79
2023/10/11 10:07:45;;;;;;;8.27;4.83;;;18.00;98.30;;;;;;10420371;28;20234;-79
2023/10/11 10:13:09;;;;;;;6.33;4.43;;;18.10;96.60;;;;;;10451452;28;20226;-79
2023/10/11 10:18:35;;;;;;;11.70;5.10;;;18.30;97.10;;;;;;10412855;28;20680;-79
2023/10/11 10:24:31;;;;;;;6.23;5.53;;;18.30;97.70;;;;;;10432974;28;20666;-79
2023/10/11 10:29:59;;;;;;;5.10;3.90;;;18.30;96.30;;;;;;10446943;28;20236;-80
2023/10/11 10:35:39;;;;;;;4.20;3.80;;;18.40;97.20;;;;;;10432895;28;20202;-79
2023/10/11 10:41:25;;;;;;;8.90;4.07;;;18.50;95.70;;;;;;10437575;28;20202;-80
2023/10/11 10:46:49;;;;;;;9.13;4.23;;;18.70;94.70;;;;;;10438927;28;20706;-79
2023/10/11 10:52:16;;;;;;;5.90;3.97;;;18.90;95.00;;;;;;10433303;28;20224;-78
2023/10/11 10:57:41;;;;;;;28.27;17.97;;;19.00;95.80;;;;;;10438820;28;20220;-78
2023/10/11 11:03:16;;;;;;;8.20;5.03;;;19.00;95.80;;;;;;10434245;28;20190;-77
2023/10/11 11:08:39;;;;;;;13.73;4.60;;;19.00;96.00;;;;;;10436057;28;20225;-78
2023/10/11 11:14:09;;;;;;;9.27;5.37;;;19.10;95.60;;;;;;10422341;28;20244;-80
2023/10/11 11:19:54;;;;;;;8.33;4.93;;;19.20;95.20;;;;;;10501659;23;20236;-80
2023/10/11 11:31:38;;;;;;;7.97;3.97;;;19.20;96.20;;;;;;10467975;28;20213;-80
2023/10/11 11:43:20;;;;;;;13.40;5.33;;;19.30;94.90;;;;;;10481248;28;20272;-80
2023/10/11 11:49:29;;;;;;;6.50;3.83;;;19.30;95.40;;;;;;10494870;28;20241;-79
2023/10/11 11:55:39;;;;;;;10.80;4.80;;;19.50;94.00;;;;;;10512102;28;20189;-80
2023/10/11 12:07:50;;;;;;;16.90;4.53;;;19.80;93.60;;;;;;10464852;28;20217;-80
2023/10/11 12:13:41;;;;;;;8.73;4.20;;;20.00;93.60;;;;;;10487665;28;20205;-80
2023/10/11 12:19:32;;;;;;;7.10;4.07;;;20.10;94.40;;;;;;10479070;28;20291;-80
2023/10/11 12:25:34;;;;;;;10.13;3.83;;;20.20;93.60;;;;;;10489136;28;20198;-80
2023/10/11 12:37:18;;;;;;;9.87;4.93;;;20.20;94.70;;;;;;10465011;28;20224;-80
2023/10/11 12:50:37;;;;;;;;;;;;;;;;;;;;;
2023/10/11 12:56:55;;;;;;;46.37;11.50;;;20.10;95.00;;;;;;10454923;28;20220;-80
2023/10/11 13:02:37;;;;;;;8.60;4.47;;;20.00;95.20;;;;;;10478009;28;20225;-80
2023/10/11 13:14:51;;;;;;;7.37;3.70;;;20.20;93.90;;;;;;10474287;28;20225;-80
2023/10/11 13:20:35;;;;;;;3.53;3.13;;;20.30;91.80;;;;;;10462737;28;20233;-80
2023/10/11 13:26:18;;;;;;;;;;;;;;;;;;;;;
2023/10/11 13:32:04;;;;;;;13.13;5.20;;;20.50;91.50;;;;;;10481224;28;20229;-80
2023/10/11 13:37:32;;;;;;;7.63;3.73;;;20.60;89.80;;;;;;10483586;28;20271;-80
2023/10/11 13:42:55;;;;;;;7.00;3.53;;;20.60;91.20;;;;;;10467017;28;20311;-80
2023/10/11 13:48:18;;;;;;;9.90;3.57;;;20.70;89.00;;;;;;10479801;28;20216;-80
2023/10/11 13:53:42;;;;;;;6.30;3.80;;;20.70;90.70;;;;;;10461192;28;20217;-80
2023/10/11 13:59:04;;;;;;;6.67;3.90;;;20.80;90.60;;;;;;10473809;28;20679;-80
2023/10/11 14:04:47;;;;;;;6.47;3.40;;;20.70;90.70;;;;;;10448703;28;20201;-80
2023/10/11 14:10:15;;;;;;;4.73;2.90;;;20.70;90.10;;;;;;10479517;28;20605;-80
2023/10/11 14:15:40;;;;;;;8.53;3.50;;;20.90;89.20;;;;;;10474055;28;20215;-80
2023/10/11 14:21:09;;;;;;;3.57;3.00;;;20.90;90.40;;;;;;10468028;28;20220;-81
2023/10/11 14:26:33;;;;;;;4.93;3.70;;;20.80;90.30;;;;;;10472132;28;20228;-80
2023/10/11 14:31:56;;;;;;;5.90;3.40;;;20.80;88.70;;;;;;10450676;28;20248;-80
2023/10/11 14:37:20;;;;;;;4.17;2.67;;;20.90;88.70;;;;;;10481254;28;20774;-80
2023/10/11 14:42:42;;;;;;;4.33;3.23;;;20.90;89.60;;;;;;10484090;28;20193;-80
2023/10/11 14:48:08;;;;;;;10.57;2.90;;;21.00;86.20;;;;;;10473748;28;20690;-80
2023/10/11 14:53:33;;;;;;;7.50;3.70;;;21.10;88.40;;;;;;10453385;28;20643;-80
2023/10/11 14:58:58;;;;;;;6.63;3.30;;;21.10;85.80;;;;;;10461140;28;20232;-80
2023/10/11 15:04:21;;;;;;;4.17;3.20;;;21.20;86.90;;;;;;10485288;28;20343;-80
2023/10/11 15:09:44;;;;;;;4.40;3.23;;;21.10;87.00;;;;;;10476330;28;20214;-80
2023/10/11 15:15:08;;;;;;;17.57;9.80;;;21.20;86.50;;;;;;10492058;28;20601;-80
2023/10/11 15:20:32;;;;;;;9.87;6.27;;;21.10;85.20;;;;;;10475744;28;20279;-81
2023/10/11 15:25:55;;;;;;;17.70;10.07;;;21.20;87.20;;;;;;10467391;28;20196;-80
2023/10/11 15:31:18;;;;;;;10.30;6.07;;;21.10;88.80;;;;;;10487679;28;20247;-80
2023/10/11 15:36:40;;;;;;;6.37;4.60;;;21.00;87.20;;;;;;10471630;28;20217;-81
2023/10/11 15:42:07;;;;;;;4.57;3.90;;;21.00;87.30;;;;;;10488415;28;20197;-80
2023/10/11 15:47:35;;;;;;;4.57;3.53;;;20.90;87.80;;;;;;10473823;28;20859;-80
2023/10/11 15:52:57;;;;;;;5.17;3.60;;;20.80;89.80;;;;;;10483676;28;20708;-80
2023/10/11 15:58:20;;;;;;;4.70;2.97;;;20.70;90.60;;;;;;10494173;28;20225;-80
2023/10/11 16:03:50;;;;;;;9.53;3.77;;;20.70;88.00;;;;;;10476623;28;20690;-81
2023/10/11 16:10:09;;;;;;;4.43;3.27;;;20.80;87.80;;;;;;10476266;23;20222;-79
2023/10/11 16:22:53;;;;;;;6.23;3.50;;;21.00;88.60;;;;;;10557476;28;20250;-79
2023/10/11 16:29:13;;;;;;;3.73;3.33;;;21.00;88.90;;;;;;10529412;28;20231;-80
2023/10/11 16:35:19;;;;;;;4.73;3.10;;;20.90;89.70;;;;;;10307653;28;20299;-79
2023/10/11 16:54:28;;;;;;;13.63;4.13;;;20.40;90.60;;;;;;10535889;28;20786;-79
2023/10/11 17:00:42;;;;;;;3.40;3.10;;;20.30;90.80;;;;;;10544557;28;20224;-80
2023/10/11 17:06:13;;;;;;;7.13;3.90;;;20.10;91.00;;;;;;10528515;28;20227;-79
2023/10/11 17:11:36;;;;;;;9.73;3.40;;;20.00;91.00;;;;;;10545129;28;20236;-80
2023/10/11 17:16:58;;;;;;;6.70;4.23;;;19.90;91.00;;;;;;10565890;28;20226;-81
2023/10/11 17:22:22;;;;;;;6.43;3.77;;;19.90;90.80;;;;;;10537462;28;20208;-80
2023/10/11 17:27:46;;;;;;;6.03;3.40;;;20.00;90.70;;;;;;10524628;28;20271;-80
2023/10/11 17:33:11;;;;;;;10.10;4.00;;;20.00;90.70;;;;;;10541427;28;20609;-79
2023/10/11 17:38:34;;;;;;;5.33;4.60;;;20.00;90.80;;;;;;10541315;28;20246;-80
2023/10/11 17:43:57;;;;;;;6.07;4.20;;;19.90;90.80;;;;;;10540373;28;20197;-80
2023/10/11 17:49:20;;;;;;;6.67;4.33;;;19.90;90.90;;;;;;10535156;28;20648;-80
2023/10/11 17:54:42;;;;;;;7.83;3.73;;;19.80;91.00;;;;;;10540558;28;20222;-80
2023/10/11 18:00:09;;;;;;;7.87;4.90;;;19.70;91.30;;;;;;10515908;28;20255;-80
2023/10/11 18:05:31;;;;;;;4.30;3.90;;;19.60;91.60;;;;;;10539606;28;20193;-80
2023/10/11 18:10:58;;;;;;;4.47;4.03;;;19.50;92.00;;;;;;10538831;28;20693;-80
2023/10/11 18:16:22;;;;;;;6.13;4.70;;;19.40;91.70;;;;;;10517340;28;20223;-80
2023/10/11 18:21:44;;;;;;;7.00;3.90;;;19.40;91.90;;;;;;10538782;28;20192;-79
2023/10/11 18:27:06;;;;;;;7.13;4.93;;;19.30;92.00;;;;;;10540635;28;20251;-80
2023/10/11 18:32:34;;;;;;;9.60;4.90;;;19.20;92.30;;;;;;10539353;28;20300;-80
2023/10/11 18:37:56;;;;;;;6.37;4.47;;;19.20;92.40;;;;;;10539316;28;20224;-80
2023/10/11 18:43:18;;;;;;;6.77;4.40;;;19.10;92.80;;;;;;10539572;28;20665;-80
2023/10/11 18:48:42;;;;;;;9.10;4.60;;;19.10;92.70;;;;;;10540812;28;20217;-78
2023/10/11 18:54:04;;;;;;;5.53;4.30;;;19.00;93.00;;;;;;10546383;28;20765;-78
2023/10/11 18:59:27;;;;;;;6.20;4.40;;;18.90;93.50;;;;;;10536444;28;20220;-78
2023/10/11 19:04:55;;;;;;;6.60;5.03;;;18.90;93.70;;;;;;10536906;28;20192;-77
2023/10/11 19:10:18;;;;;;;9.13;5.20;;;18.80;93.80;;;;;;10534878;28;20582;-77
2023/10/11 19:15:41;;;;;;;4.90;4.00;;;18.80;94.00;;;;;;10537082;28;20220;-81
2023/10/11 19:21:05;;;;;;;6.90;4.70;;;18.70;94.10;;;;;;10538168;28;20207;-78
2023/10/11 19:26:28;;;;;;;10.10;5.90;;;18.60;94.30;;;;;;10536880;28;20220;-77
2023/10/11 19:31:51;;;;;;;6.70;4.93;;;18.60;94.20;;;;;;10533349;28;20200;-78
2023/10/11 19:37:17;;;;;;;10.10;4.83;;;18.60;94.40;;;;;;10534791;28;20231;-79
2023/10/11 19:42:41;;;;;;;7.53;4.83;;;18.60;94.50;;;;;;10508696;28;20250;-79
2023/10/11 19:48:05;;;;;;;11.17;5.43;;;18.50;94.50;;;;;;10538181;28;20243;-80
2023/10/11 19:53:29;;;;;;;14.23;5.50;;;18.40;94.60;;;;;;10531078;28;20242;-79
2023/10/11 19:58:52;;;;;;;4.90;4.17;;;18.40;94.70;;;;;;10538412;28;20310;-79
2023/10/11 20:04:14;;;;;;;9.90;4.63;;;18.40;94.60;;;;;;10535089;28;20241;-78
2023/10/11 20:09:37;;;;;;;11.53;5.90;;;18.30;94.70;;;;;;10530271;28;20255;-75
2023/10/11 20:15:00;;;;;;;8.77;5.53;;;18.30;94.70;;;;;;10540305;28;20228;-80
2023/10/11 20:20:24;;;;;;;5.93;4.00;;;18.30;94.80;;;;;;10536466;28;20572;-79
2023/10/11 20:25:47;;;;;;;8.37;4.90;;;18.30;94.80;;;;;;10541172;28;20201;-78
2023/10/11 20:31:10;;;;;;;11.03;4.60;;;18.30;94.80;;;;;;10543043;28;20227;-79
2023/10/11 20:36:32;;;;;;;6.40;4.70;;;18.30;94.70;;;;;;10540509;28;20306;-79
2023/10/11 20:41:56;;;;;;;8.63;4.03;;;18.40;94.60;;;;;;10541799;28;20623;-80
2023/10/11 20:47:18;;;;;;;8.30;4.50;;;18.50;94.30;;;;;;10541759;28;20243;-80
2023/10/11 20:52:40;;;;;;;6.03;4.30;;;18.80;94.00;;;;;;10541559;28;20220;-80
2023/10/11 20:58:18;;;;;;;6.83;4.27;;;18.90;93.90;;;;;;10556070;28;20227;-80
2023/10/11 21:03:40;;;;;;;8.93;5.10;;;19.00;93.70;;;;;;10536869;28;20189;-79
2023/10/11 21:09:04;;;;;;;7.53;4.00;;;19.10;93.50;;;;;;10522650;28;20235;-77
2023/10/11 21:14:28;;;;;;;7.70;4.13;;;19.20;93.60;;;;;;10549661;28;20229;-79
2023/10/11 21:19:51;;;;;;;4.67;3.47;;;19.10;93.70;;;;;;10556395;28;20216;-78
2023/10/11 21:25:13;;;;;;;5.57;4.63;;;19.10;93.80;;;;;;10542489;28;20193;-79
2023/10/11 21:30:39;;;;;;;10.33;5.20;;;19.10;93.90;;;;;;10540051;28;20715;-79
2023/10/11 21:36:03;;;;;;;5.80;4.00;;;19.00;94.00;;;;;;10540290;28;20232;-80
2023/10/11 21:41:25;;;;;;;6.80;5.47;;;18.90;94.10;;;;;;10546018;28;20205;-79
2023/10/11 21:46:49;;;;;;;4.80;3.43;;;18.90;93.90;;;;;;10545782;28;20272;-78
2023/10/11 21:52:11;;;;;;;8.00;4.67;;;18.90;93.70;;;;;;10541714;28;20745;-79
2023/10/11 21:57:34;;;;;;;5.10;3.63;;;19.00;93.50;;;;;;10541401;28;20287;-79
2023/10/11 22:02:57;;;;;;;5.77;4.20;;;19.10;93.40;;;;;;10536760;28;20200;-79
2023/10/11 22:08:20;;;;;;;8.73;4.93;;;19.20;93.00;;;;;;10524658;28;20251;-79
2023/10/11 22:13:44;;;;;;;6.40;3.93;;;19.30;92.70;;;;;;10552353;28;20211;-78
2023/10/11 22:19:07;;;;;;;6.30;4.43;;;19.40;92.60;;;;;;10544911;28;20611;-79
2023/10/11 22:24:29;;;;;;;6.73;4.27;;;19.40;92.50;;;;;;10537860;28;20200;-79
2023/10/11 22:29:52;;;;;;;9.17;4.13;;;19.40;92.70;;;;;;10536219;28;20554;-78
2023/10/11 22:35:16;;;;;;;6.07;4.30;;;19.40;92.70;;;;;;10536929;28;20212;-79
2023/10/11 22:40:39;;;;;;;7.23;4.33;;;19.30;92.70;;;;;;10534433;28;20480;-79
2023/10/11 22:46:02;;;;;;;7.93;4.63;;;19.20;92.60;;;;;;10574097;28;20195;-80
2023/10/11 22:51:27;;;;;;;5.83;4.73;;;19.20;92.70;;;;;;10531794;28;20205;-78
2023/10/11 22:56:49;;;;;;;10.37;4.10;;;19.10;92.80;;;;;;10538432;28;20704;-80
2023/10/11 23:02:13;;;;;;;6.03;4.43;;;19.00;93.20;;;;;;10529422;28;20208;-80
2023/10/11 23:07:36;;;;;;;9.73;4.50;;;19.00;93.10;;;;;;10537239;28;20239;-79
2023/10/11 23:12:59;;;;;;;6.10;5.00;;;18.90;93.20;;;;;;10536642;28;20224;-79
2023/10/11 23:18:27;;;;;;;7.17;4.10;;;18.80;93.30;;;;;;10539561;28;20671;-79
2023/10/11 23:23:51;;;;;;;6.23;4.40;;;18.80;93.20;;;;;;10534705;28;20189;-79
2023/10/11 23:29:14;;;;;;;5.50;3.90;;;18.70;93.20;;;;;;10512806;28;20220;-79
2023/10/11 23:34:36;;;;;;;8.80;5.43;;;18.70;93.20;;;;;;10522625;28;20224;-80
2023/10/11 23:40:20;;;;;;;7.10;4.50;;;18.70;93.30;;;;;;10546913;28;20220;-79
2023/10/11 23:45:51;;;;;;;7.00;4.30;;;18.80;93.20;;;;;;10544730;28;20224;-79
2023/10/11 23:51:18;;;;;;;6.73;4.33;;;18.80;93.20;;;;;;10548971;28;20681;-80
2023/10/11 23:56:44;;;;;;;5.50;4.90;;;18.90;93.20;;;;;;10544093;28;20239;-80
